sensor_id;sensor_type;location;lat;lon;timestamp;P1;durP1;ratioP1;P2;durP2;ratioP2
36585;SDS011;22591;48.314;11.562;2024-02-26T00:01:39;59.22;;;35.65;;
36585;SDS011;22591;48.314;11.562;2024-02-26T00:04:05;53.78;;;33.60;;
36585;SDS011;22591;48.314;11.562;2024-02-26T00:06:31;51.22;;;32.30;;
36585;SDS011;22591;48.314;11.562;2024-02-26T00:08:57;55.65;;;32.22;;
36585;SDS011;22591;48.314;11.562;2024-02-26T00:11:23;56.05;;;33.83;;
36585;SDS011;22591;48.314;11.562;2024-02-26T00:13:48;54.28;;;34.50;;
36585;SDS011;22591;48.314;11.562;2024-02-26T00:16:16;61.08;;;36.42;;
36585;SDS011;22591;48.314;11.562;2024-02-26T00:18:42;57.45;;;35.38;;
36585;SDS011;22591;48.314;11.562;2024-02-26T00:21:08;61.60;;;37.13;;
36585;SDS011;22591;48.314;11.562;2024-02-26T00:23:33;57.22;;;33.53;;
36585;SDS011;22591;48.314;11.562;2024-02-26T00:25:59;56.00;;;34.17;;
36585;SDS011;22591;48.314;11.562;2024-02-26T00:28:24;55.83;;;34.17;;
36585;SDS011;22591;48.314;11.562;2024-02-26T00:30:50;59.40;;;35.08;;
36585;SDS011;22591;48.314;11.562;2024-02-26T00:33:20;59.50;;;34.72;;
36585;SDS011;22591;48.314;11.562;2024-02-26T00:35:47;58.72;;;34.20;;
36585;SDS011;22591;48.314;11.562;2024-02-26T00:38:13;53.80;;;34.05;;
36585;SDS011;22591;48.314;11.562;2024-02-26T00:40:38;59.22;;;35.33;;
36585;SDS011;22591;48.314;11.562;2024-02-26T00:43:05;56.83;;;33.58;;
36585;SDS011;22591;48.314;11.562;2024-02-26T00:45:31;58.33;;;35.97;;
36585;SDS011;22591;48.314;11.562;2024-02-26T00:47:57;60.60;;;35.10;;
36585;SDS011;22591;48.314;11.562;2024-02-26T00:50:23;56.65;;;33.88;;
36585;SDS011;22591;48.314;11.562;2024-02-26T00:52:48;52.63;;;32.17;;
36585;SDS011;22591;48.314;11.562;2024-02-26T00:55:16;55.75;;;34.35;;
36585;SDS011;22591;48.314;11.562;2024-02-26T00:57:41;59.33;;;33.65;;
36585;SDS011;22591;48.314;11.562;2024-02-26T01:00:07;57.67;;;34.42;;
36585;SDS011;22591;48.314;11.562;2024-02-26T01:02:36;66.70;;;36.80;;
36585;SDS011;22591;48.314;11.562;2024-02-26T01:05:01;62.83;;;35.88;;
36585;SDS011;22591;48.314;11.562;2024-02-26T01:07:27;59.40;;;35.33;;
36585;SDS011;22591;48.314;11.562;2024-02-26T01:09:53;54.25;;;33.42;;
36585;SDS011;22591;48.314;11.562;2024-02-26T01:12:18;58.78;;;34.13;;
36585;SDS011;22591;48.314;11.562;2024-02-26T01:14:44;51.83;;;34.03;;
36585;SDS011;22591;48.314;11.562;2024-02-26T01:17:09;50.65;;;32.17;;
36585;SDS011;22591;48.314;11.562;2024-02-26T01:19:35;55.45;;;31.85;;
36585;SDS011;22591;48.314;11.562;2024-02-26T01:22:01;50.33;;;33.05;;
36585;SDS011;22591;48.314;11.562;2024-02-26T01:24:26;54.28;;;32.20;;
36585;SDS011;22591;48.314;11.562;2024-02-26T01:26:52;52.67;;;30.92;;
36585;SDS011;22591;48.314;11.562;2024-02-26T01:29:18;52.40;;;32.22;;
36585;SDS011;22591;48.314;11.562;2024-02-26T01:31:44;47.85;;;30.25;;
36585;SDS011;22591;48.314;11.562;2024-02-26T01:34:11;56.38;;;33.58;;
36585;SDS011;22591;48.314;11.562;2024-02-26T01:36:39;58.58;;;33.67;;
36585;SDS011;22591;48.314;11.562;2024-02-26T01:39:04;52.10;;;30.83;;
36585;SDS011;22591;48.314;11.562;2024-02-26T01:41:31;52.80;;;32.58;;
36585;SDS011;22591;48.314;11.562;2024-02-26T01:43:56;55.10;;;33.83;;
36585;SDS011;22591;48.314;11.562;2024-02-26T01:46:22;56.03;;;35.25;;
36585;SDS011;22591;48.314;11.562;2024-02-26T01:48:48;53.63;;;32.92;;
36585;SDS011;22591;48.314;11.562;2024-02-26T01:51:15;51.80;;;32.20;;
36585;SDS011;22591;48.314;11.562;2024-02-26T01:53:42;55.08;;;32.45;;
36585;SDS011;22591;48.314;11.562;2024-02-26T01:56:08;48.65;;;31.58;;
36585;SDS011;22591;48.314;11.562;2024-02-26T01:58:34;50.72;;;31.98;;
36585;SDS011;22591;48.314;11.562;2024-02-26T02:01:00;53.53;;;32.20;;
36585;SDS011;22591;48.314;11.562;2024-02-26T02:03:28;54.80;;;33.80;;
36585;SDS011;22591;48.314;11.562;2024-02-26T02:05:54;58.13;;;33.60;;
36585;SDS011;22591;48.314;11.562;2024-02-26T02:08:21;57.17;;;35.35;;
36585;SDS011;22591;48.314;11.562;2024-02-26T02:10:48;57.30;;;32.85;;
36585;SDS011;22591;48.314;11.562;2024-02-26T02:13:14;58.92;;;34.22;;
36585;SDS011;22591;48.314;11.562;2024-02-26T02:15:40;58.67;;;34.15;;
36585;SDS011;22591;48.314;11.562;2024-02-26T02:18:05;51.15;;;30.67;;
36585;SDS011;22591;48.314;11.562;2024-02-26T02:20:32;49.22;;;30.73;;
36585;SDS011;22591;48.314;11.562;2024-02-26T02:23:02;43.40;;;29.13;;
36585;SDS011;22591;48.314;11.562;2024-02-26T02:25:28;48.40;;;29.42;;
36585;SDS011;22591;48.314;11.562;2024-02-26T02:27:53;51.10;;;31.50;;
36585;SDS011;22591;48.314;11.562;2024-02-26T02:30:24;48.88;;;30.25;;
36585;SDS011;22591;48.314;11.562;2024-02-26T02:32:52;49.35;;;30.73;;
36585;SDS011;22591;48.314;11.562;2024-02-26T02:35:18;44.13;;;30.35;;
36585;SDS011;22591;48.314;11.562;2024-02-26T02:37:44;45.22;;;30.52;;
36585;SDS011;22591;48.314;11.562;2024-02-26T02:40:10;50.40;;;31.52;;
36585;SDS011;22591;48.314;11.562;2024-02-26T02:42:36;52.88;;;31.67;;
36585;SDS011;22591;48.314;11.562;2024-02-26T02:45:01;53.88;;;32.33;;
36585;SDS011;22591;48.314;11.562;2024-02-26T02:47:27;48.17;;;31.00;;
36585;SDS011;22591;48.314;11.562;2024-02-26T02:49:52;48.78;;;30.40;;
36585;SDS011;22591;48.314;11.562;2024-02-26T02:52:18;52.28;;;31.40;;
36585;SDS011;22591;48.314;11.562;2024-02-26T02:54:43;50.17;;;31.98;;
36585;SDS011;22591;48.314;11.562;2024-02-26T02:57:09;53.17;;;32.28;;
36585;SDS011;22591;48.314;11.562;2024-02-26T02:59:35;48.53;;;30.25;;
36585;SDS011;22591;48.314;11.562;2024-02-26T03:02:01;57.15;;;32.95;;
36585;SDS011;22591;48.314;11.562;2024-02-26T03:04:26;51.20;;;31.48;;
36585;SDS011;22591;48.314;11.562;2024-02-26T03:06:52;50.97;;;32.10;;
36585;SDS011;22591;48.314;11.562;2024-02-26T03:09:19;51.70;;;32.15;;
36585;SDS011;22591;48.314;11.562;2024-02-26T03:11:44;47.65;;;31.98;;
36585;SDS011;22591;48.314;11.562;2024-02-26T03:14:10;50.63;;;31.33;;
36585;SDS011;22591;48.314;11.562;2024-02-26T03:16:36;50.00;;;31.00;;
36585;SDS011;22591;48.314;11.562;2024-02-26T03:19:01;47.78;;;29.77;;
36585;SDS011;22591;48.314;11.562;2024-02-26T03:21:28;47.85;;;30.60;;
36585;SDS011;22591;48.314;11.562;2024-02-26T03:23:53;45.13;;;29.60;;
36585;SDS011;22591;48.314;11.562;2024-02-26T03:26:19;46.78;;;30.77;;
36585;SDS011;22591;48.314;11.562;2024-02-26T03:28:45;45.13;;;28.52;;
36585;SDS011;22591;48.314;11.562;2024-02-26T03:31:10;43.10;;;27.98;;
36585;SDS011;22591;48.314;11.562;2024-02-26T03:33:36;43.25;;;29.30;;
36585;SDS011;22591;48.314;11.562;2024-02-26T03:36:01;41.28;;;28.77;;
36585;SDS011;22591;48.314;11.562;2024-02-26T03:38:28;44.30;;;28.70;;
36585;SDS011;22591;48.314;11.562;2024-02-26T03:40:54;44.80;;;28.13;;
36585;SDS011;22591;48.314;11.562;2024-02-26T03:43:19;45.65;;;29.92;;
36585;SDS011;22591;48.314;11.562;2024-02-26T03:45:45;46.20;;;28.48;;
36585;SDS011;22591;48.314;11.562;2024-02-26T03:48:10;50.70;;;32.97;;
36585;SDS011;22591;48.314;11.562;2024-02-26T03:50:36;45.03;;;28.05;;
36585;SDS011;22591;48.314;11.562;2024-02-26T03:53:02;45.28;;;28.42;;
36585;SDS011;22591;48.314;11.562;2024-02-26T03:55:28;40.55;;;27.75;;
36585;SDS011;22591;48.314;11.562;2024-02-26T03:57:53;39.88;;;27.70;;
36585;SDS011;22591;48.314;11.562;2024-02-26T04:00:21;45.00;;;28.48;;
36585;SDS011;22591;48.314;11.562;2024-02-26T04:02:46;41.42;;;28.13;;
36585;SDS011;22591;48.314;11.562;2024-02-26T04:05:12;42.78;;;28.10;;
36585;SDS011;22591;48.314;11.562;2024-02-26T04:07:39;41.03;;;27.27;;
36585;SDS011;22591;48.314;11.562;2024-02-26T04:10:12;38.33;;;26.45;;
36585;SDS011;22591;48.314;11.562;2024-02-26T04:12:40;42.10;;;27.25;;
36585;SDS011;22591;48.314;11.562;2024-02-26T04:15:07;43.25;;;27.80;;
36585;SDS011;22591;48.314;11.562;2024-02-26T04:17:36;39.35;;;27.23;;
36585;SDS011;22591;48.314;11.562;2024-02-26T04:20:02;40.05;;;28.23;;
36585;SDS011;22591;48.314;11.562;2024-02-26T04:22:30;36.42;;;26.77;;
36585;SDS011;22591;48.314;11.562;2024-02-26T04:24:57;38.05;;;25.95;;
36585;SDS011;22591;48.314;11.562;2024-02-26T04:27:23;35.78;;;25.60;;
36585;SDS011;22591;48.314;11.562;2024-02-26T04:29:48;40.53;;;25.98;;
36585;SDS011;22591;48.314;11.562;2024-02-26T04:32:14;35.97;;;24.95;;
36585;SDS011;22591;48.314;11.562;2024-02-26T04:34:39;36.17;;;25.65;;
36585;SDS011;22591;48.314;11.562;2024-02-26T04:37:05;33.90;;;24.52;;
36585;SDS011;22591;48.314;11.562;2024-02-26T04:39:30;36.65;;;25.08;;
36585;SDS011;22591;48.314;11.562;2024-02-26T04:41:56;36.55;;;24.45;;
36585;SDS011;22591;48.314;11.562;2024-02-26T04:44:21;39.42;;;25.25;;
36585;SDS011;22591;48.314;11.562;2024-02-26T04:46:47;42.67;;;26.60;;
36585;SDS011;22591;48.314;11.562;2024-02-26T04:49:14;38.72;;;25.95;;
36585;SDS011;22591;48.314;11.562;2024-02-26T04:51:39;35.97;;;23.20;;
36585;SDS011;22591;48.314;11.562;2024-02-26T04:54:05;35.08;;;25.63;;
36585;SDS011;22591;48.314;11.562;2024-02-26T04:56:30;39.42;;;25.75;;
36585;SDS011;22591;48.314;11.562;2024-02-26T04:58:56;34.50;;;24.42;;
36585;SDS011;22591;48.314;11.562;2024-02-26T05:01:21;34.47;;;24.85;;
36585;SDS011;22591;48.314;11.562;2024-02-26T05:03:47;33.67;;;23.00;;
36585;SDS011;22591;48.314;11.562;2024-02-26T05:06:14;34.15;;;23.83;;
36585;SDS011;22591;48.314;11.562;2024-02-26T05:08:40;38.20;;;24.80;;
36585;SDS011;22591;48.314;11.562;2024-02-26T05:11:05;34.60;;;23.50;;
36585;SDS011;22591;48.314;11.562;2024-02-26T05:13:31;31.60;;;22.88;;
36585;SDS011;22591;48.314;11.562;2024-02-26T05:15:57;34.47;;;23.20;;
36585;SDS011;22591;48.314;11.562;2024-02-26T05:18:22;32.63;;;22.52;;
36585;SDS011;22591;48.314;11.562;2024-02-26T05:20:48;33.00;;;22.88;;
36585;SDS011;22591;48.314;11.562;2024-02-26T05:23:14;34.65;;;22.27;;
36585;SDS011;22591;48.314;11.562;2024-02-26T05:25:39;33.50;;;22.85;;
36585;SDS011;22591;48.314;11.562;2024-02-26T05:28:06;36.13;;;24.00;;
36585;SDS011;22591;48.314;11.562;2024-02-26T05:30:31;34.55;;;23.35;;
36585;SDS011;22591;48.314;11.562;2024-02-26T05:32:57;31.25;;;21.13;;
36585;SDS011;22591;48.314;11.562;2024-02-26T05:35:23;31.80;;;22.27;;
36585;SDS011;22591;48.314;11.562;2024-02-26T05:37:48;29.77;;;22.40;;
36585;SDS011;22591;48.314;11.562;2024-02-26T05:40:15;31.23;;;22.10;;
36585;SDS011;22591;48.314;11.562;2024-02-26T05:42:41;32.10;;;22.40;;
36585;SDS011;22591;48.314;11.562;2024-02-26T05:45:06;33.97;;;23.75;;
36585;SDS011;22591;48.314;11.562;2024-02-26T05:47:32;37.35;;;22.70;;
36585;SDS011;22591;48.314;11.562;2024-02-26T05:49:58;34.05;;;22.23;;
36585;SDS011;22591;48.314;11.562;2024-02-26T05:52:25;36.95;;;22.48;;
36585;SDS011;22591;48.314;11.562;2024-02-26T05:54:51;31.70;;;22.67;;
36585;SDS011;22591;48.314;11.562;2024-02-26T05:57:17;33.65;;;22.13;;
36585;SDS011;22591;48.314;11.562;2024-02-26T05:59:43;27.00;;;20.70;;
36585;SDS011;22591;48.314;11.562;2024-02-26T06:02:09;28.85;;;20.63;;
36585;SDS011;22591;48.314;11.562;2024-02-26T06:04:34;31.73;;;21.20;;
36585;SDS011;22591;48.314;11.562;2024-02-26T06:07:00;29.58;;;21.48;;
36585;SDS011;22591;48.314;11.562;2024-02-26T06:09:26;31.75;;;22.55;;
36585;SDS011;22591;48.314;11.562;2024-02-26T06:11:51;31.17;;;21.98;;
36585;SDS011;22591;48.314;11.562;2024-02-26T06:14:17;34.42;;;23.73;;
36585;SDS011;22591;48.314;11.562;2024-02-26T06:16:43;35.63;;;23.15;;
36585;SDS011;22591;48.314;11.562;2024-02-26T06:19:09;33.83;;;23.52;;
36585;SDS011;22591;48.314;11.562;2024-02-26T06:21:35;28.95;;;22.65;;
36585;SDS011;22591;48.314;11.562;2024-02-26T06:24:01;31.27;;;22.42;;
36585;SDS011;22591;48.314;11.562;2024-02-26T06:26:27;28.45;;;21.08;;
36585;SDS011;22591;48.314;11.562;2024-02-26T06:28:54;27.75;;;19.65;;
36585;SDS011;22591;48.314;11.562;2024-02-26T06:31:21;28.25;;;20.08;;
36585;SDS011;22591;48.314;11.562;2024-02-26T06:33:48;29.02;;;20.58;;
36585;SDS011;22591;48.314;11.562;2024-02-26T06:36:15;26.10;;;19.77;;
36585;SDS011;22591;48.314;11.562;2024-02-26T06:38:41;24.90;;;19.27;;
36585;SDS011;22591;48.314;11.562;2024-02-26T06:41:07;22.83;;;18.73;;
36585;SDS011;22591;48.314;11.562;2024-02-26T06:43:32;28.23;;;19.80;;
36585;SDS011;22591;48.314;11.562;2024-02-26T06:45:58;29.95;;;19.52;;
36585;SDS011;22591;48.314;11.562;2024-02-26T06:48:24;24.55;;;19.05;;
36585;SDS011;22591;48.314;11.562;2024-02-26T06:50:50;25.02;;;19.63;;
36585;SDS011;22591;48.314;11.562;2024-02-26T06:53:16;24.30;;;18.38;;
36585;SDS011;22591;48.314;11.562;2024-02-26T06:55:41;25.95;;;16.80;;
36585;SDS011;22591;48.314;11.562;2024-02-26T06:58:08;25.38;;;18.80;;
36585;SDS011;22591;48.314;11.562;2024-02-26T07:00:34;21.95;;;16.52;;
36585;SDS011;22591;48.314;11.562;2024-02-26T07:03:00;22.33;;;17.58;;
36585;SDS011;22591;48.314;11.562;2024-02-26T07:05:25;22.10;;;17.10;;
36585;SDS011;22591;48.314;11.562;2024-02-26T07:07:53;19.67;;;17.10;;
36585;SDS011;22591;48.314;11.562;2024-02-26T07:10:19;22.70;;;17.25;;
36585;SDS011;22591;48.314;11.562;2024-02-26T07:12:44;22.73;;;16.85;;
36585;SDS011;22591;48.314;11.562;2024-02-26T07:15:11;21.40;;;17.63;;
36585;SDS011;22591;48.314;11.562;2024-02-26T07:17:37;20.02;;;15.60;;
36585;SDS011;22591;48.314;11.562;2024-02-26T07:20:04;21.35;;;17.30;;
36585;SDS011;22591;48.314;11.562;2024-02-26T07:22:30;22.80;;;16.83;;
36585;SDS011;22591;48.314;11.562;2024-02-26T07:24:56;24.70;;;17.17;;
36585;SDS011;22591;48.314;11.562;2024-02-26T07:27:23;21.33;;;16.80;;
36585;SDS011;22591;48.314;11.562;2024-02-26T07:29:48;21.45;;;16.42;;
36585;SDS011;22591;48.314;11.562;2024-02-26T07:32:14;23.73;;;17.00;;
36585;SDS011;22591;48.314;11.562;2024-02-26T07:34:41;17.02;;;14.05;;
36585;SDS011;22591;48.314;11.562;2024-02-26T07:37:10;19.52;;;15.60;;
36585;SDS011;22591;48.314;11.562;2024-02-26T07:39:36;24.45;;;15.10;;
36585;SDS011;22591;48.314;11.562;2024-02-26T07:42:02;20.67;;;15.88;;
36585;SDS011;22591;48.314;11.562;2024-02-26T07:44:28;18.63;;;15.65;;
36585;SDS011;22591;48.314;11.562;2024-02-26T07:46:54;16.80;;;14.60;;
36585;SDS011;22591;48.314;11.562;2024-02-26T07:49:19;18.17;;;15.48;;
36585;SDS011;22591;48.314;11.562;2024-02-26T07:51:45;17.63;;;14.77;;
36585;SDS011;22591;48.314;11.562;2024-02-26T07:54:10;18.23;;;15.25;;
36585;SDS011;22591;48.314;11.562;2024-02-26T07:56:36;17.60;;;13.20;;
36585;SDS011;22591;48.314;11.562;2024-02-26T07:59:01;17.60;;;14.63;;
36585;SDS011;22591;48.314;11.562;2024-02-26T08:01:28;16.85;;;14.75;;
36585;SDS011;22591;48.314;11.562;2024-02-26T08:03:54;17.65;;;14.45;;
36585;SDS011;22591;48.314;11.562;2024-02-26T08:06:20;16.45;;;13.35;;
36585;SDS011;22591;48.314;11.562;2024-02-26T08:08:46;15.43;;;13.32;;
36585;SDS011;22591;48.314;11.562;2024-02-26T08:11:13;16.77;;;13.68;;
36585;SDS011;22591;48.314;11.562;2024-02-26T08:13:40;16.45;;;13.38;;
36585;SDS011;22591;48.314;11.562;2024-02-26T08:16:06;22.38;;;15.48;;
36585;SDS011;22591;48.314;11.562;2024-02-26T08:18:32;15.90;;;12.90;;
36585;SDS011;22591;48.314;11.562;2024-02-26T08:20:57;15.00;;;13.32;;
36585;SDS011;22591;48.314;11.562;2024-02-26T08:23:24;15.88;;;12.82;;
36585;SDS011;22591;48.314;11.562;2024-02-26T08:25:51;16.80;;;13.85;;
36585;SDS011;22591;48.314;11.562;2024-02-26T08:28:18;15.43;;;12.98;;
36585;SDS011;22591;48.314;11.562;2024-02-26T08:30:43;16.23;;;13.75;;
36585;SDS011;22591;48.314;11.562;2024-02-26T08:33:09;13.10;;;10.93;;
36585;SDS011;22591;48.314;11.562;2024-02-26T08:35:35;14.05;;;11.50;;
36585;SDS011;22591;48.314;11.562;2024-02-26T08:38:01;12.38;;;11.18;;
36585;SDS011;22591;48.314;11.562;2024-02-26T08:40:29;12.85;;;11.50;;
36585;SDS011;22591;48.314;11.562;2024-02-26T08:42:54;11.75;;;10.63;;
36585;SDS011;22591;48.314;11.562;2024-02-26T08:45:20;13.40;;;11.85;;
36585;SDS011;22591;48.314;11.562;2024-02-26T08:47:46;14.20;;;12.07;;
36585;SDS011;22591;48.314;11.562;2024-02-26T08:50:12;13.63;;;12.32;;
36585;SDS011;22591;48.314;11.562;2024-02-26T08:52:39;14.95;;;13.10;;
36585;SDS011;22591;48.314;11.562;2024-02-26T08:55:05;18.63;;;14.73;;
36585;SDS011;22591;48.314;11.562;2024-02-26T08:57:31;19.92;;;14.95;;
36585;SDS011;22591;48.314;11.562;2024-02-26T08:59:59;15.40;;;13.18;;
36585;SDS011;22591;48.314;11.562;2024-02-26T09:02:26;18.50;;;15.75;;
36585;SDS011;22591;48.314;11.562;2024-02-26T09:04:52;19.33;;;15.43;;
36585;SDS011;22591;48.314;11.562;2024-02-26T09:07:20;22.80;;;17.38;;
36585;SDS011;22591;48.314;11.562;2024-02-26T09:09:46;23.30;;;16.73;;
36585;SDS011;22591;48.314;11.562;2024-02-26T09:12:11;17.52;;;14.73;;
36585;SDS011;22591;48.314;11.562;2024-02-26T09:14:37;15.68;;;13.73;;
36585;SDS011;22591;48.314;11.562;2024-02-26T09:17:02;14.85;;;13.20;;
36585;SDS011;22591;48.314;11.562;2024-02-26T09:19:28;14.88;;;13.32;;
36585;SDS011;22591;48.314;11.562;2024-02-26T09:21:54;14.48;;;12.35;;
36585;SDS011;22591;48.314;11.562;2024-02-26T09:24:23;16.10;;;13.73;;
36585;SDS011;22591;48.314;11.562;2024-02-26T09:26:49;14.40;;;12.00;;
36585;SDS011;22591;48.314;11.562;2024-02-26T09:29:15;11.10;;;10.00;;
36585;SDS011;22591;48.314;11.562;2024-02-26T09:31:40;9.93;;;8.82;;
36585;SDS011;22591;48.314;11.562;2024-02-26T09:34:06;9.02;;;7.53;;
36585;SDS011;22591;48.314;11.562;2024-02-26T09:36:33;8.63;;;7.80;;
36585;SDS011;22591;48.314;11.562;2024-02-26T09:38:59;7.70;;;7.00;;
36585;SDS011;22591;48.314;11.562;2024-02-26T09:41:24;7.90;;;7.10;;
36585;SDS011;22591;48.314;11.562;2024-02-26T09:43:54;8.20;;;7.45;;
36585;SDS011;22591;48.314;11.562;2024-02-26T09:46:22;8.55;;;7.30;;
36585;SDS011;22591;48.314;11.562;2024-02-26T09:48:51;8.32;;;7.50;;
36585;SDS011;22591;48.314;11.562;2024-02-26T09:51:17;8.98;;;6.88;;
36585;SDS011;22591;48.314;11.562;2024-02-26T09:53:44;7.28;;;6.53;;
36585;SDS011;22591;48.314;11.562;2024-02-26T09:56:12;7.40;;;6.70;;
36585;SDS011;22591;48.314;11.562;2024-02-26T09:58:39;7.13;;;5.93;;
36585;SDS011;22591;48.314;11.562;2024-02-26T10:01:08;6.60;;;6.07;;
36585;SDS011;22591;48.314;11.562;2024-02-26T10:03:41;6.47;;;5.88;;
36585;SDS011;22591;48.314;11.562;2024-02-26T10:06:10;6.22;;;5.82;;
36585;SDS011;22591;48.314;11.562;2024-02-26T10:08:36;5.90;;;5.45;;
36585;SDS011;22591;48.314;11.562;2024-02-26T10:11:04;6.82;;;6.00;;
36585;SDS011;22591;48.314;11.562;2024-02-26T10:13:31;7.35;;;6.63;;
36585;SDS011;22591;48.314;11.562;2024-02-26T10:15:57;6.90;;;6.30;;
36585;SDS011;22591;48.314;11.562;2024-02-26T10:18:23;6.60;;;6.00;;
36585;SDS011;22591;48.314;11.562;2024-02-26T10:21:01;6.38;;;5.88;;
36585;SDS011;22591;48.314;11.562;2024-02-26T10:23:27;6.80;;;5.45;;
36585;SDS011;22591;48.314;11.562;2024-02-26T10:25:55;5.95;;;5.47;;
36585;SDS011;22591;48.314;11.562;2024-02-26T10:28:22;6.97;;;6.18;;
36585;SDS011;22591;48.314;11.562;2024-02-26T10:30:47;8.80;;;6.07;;
36585;SDS011;22591;48.314;11.562;2024-02-26T10:33:13;6.80;;;6.28;;
36585;SDS011;22591;48.314;11.562;2024-02-26T10:35:39;6.18;;;5.25;;
36585;SDS011;22591;48.314;11.562;2024-02-26T10:38:10;6.72;;;6.22;;
36585;SDS011;22591;48.314;11.562;2024-02-26T10:40:35;7.18;;;6.57;;
36585;SDS011;22591;48.314;11.562;2024-02-26T10:43:01;10.15;;;6.90;;
36585;SDS011;22591;48.314;11.562;2024-02-26T10:45:28;7.15;;;6.45;;
36585;SDS011;22591;48.314;11.562;2024-02-26T10:47:54;6.80;;;6.20;;
36585;SDS011;22591;48.314;11.562;2024-02-26T10:50:19;6.90;;;6.00;;
36585;SDS011;22591;48.314;11.562;2024-02-26T10:52:45;6.47;;;5.97;;
36585;SDS011;22591;48.314;11.562;2024-02-26T10:55:14;7.00;;;6.40;;
36585;SDS011;22591;48.314;11.562;2024-02-26T11:00:10;6.85;;;6.13;;
36585;SDS011;22591;48.314;11.562;2024-02-26T11:02:39;7.65;;;7.00;;
36585;SDS011;22591;48.314;11.562;2024-02-26T11:05:06;8.02;;;6.22;;
36585;SDS011;22591;48.314;11.562;2024-02-26T11:07:33;6.70;;;6.03;;
36585;SDS011;22591;48.314;11.562;2024-02-26T11:10:00;6.78;;;6.18;;
36585;SDS011;22591;48.314;11.562;2024-02-26T11:12:29;6.22;;;5.65;;
36585;SDS011;22591;48.314;11.562;2024-02-26T11:14:57;6.35;;;5.85;;
36585;SDS011;22591;48.314;11.562;2024-02-26T11:17:23;6.45;;;5.68;;
36585;SDS011;22591;48.314;11.562;2024-02-26T11:19:53;5.82;;;5.32;;
36585;SDS011;22591;48.314;11.562;2024-02-26T11:22:21;6.35;;;5.88;;
36585;SDS011;22591;48.314;11.562;2024-02-26T11:24:51;5.97;;;5.57;;
36585;SDS011;22591;48.314;11.562;2024-02-26T11:27:18;6.15;;;5.65;;
36585;SDS011;22591;48.314;11.562;2024-02-26T11:29:48;6.25;;;5.75;;
36585;SDS011;22591;48.314;11.562;2024-02-26T11:32:17;6.93;;;6.35;;
36585;SDS011;22591;48.314;11.562;2024-02-26T11:34:43;5.97;;;5.30;;
36585;SDS011;22591;48.314;11.562;2024-02-26T11:37:13;5.28;;;4.88;;
36585;SDS011;22591;48.314;11.562;2024-02-26T11:39:40;5.65;;;5.22;;
36585;SDS011;22591;48.314;11.562;2024-02-26T11:42:06;6.35;;;5.75;;
36585;SDS011;22591;48.314;11.562;2024-02-26T11:44:33;6.22;;;5.78;;
36585;SDS011;22591;48.314;11.562;2024-02-26T11:46:59;5.88;;;4.85;;
36585;SDS011;22591;48.314;11.562;2024-02-26T11:49:38;6.50;;;5.25;;
36585;SDS011;22591;48.314;11.562;2024-02-26T11:52:05;5.45;;;5.05;;
36585;SDS011;22591;48.314;11.562;2024-02-26T11:54:48;6.00;;;5.50;;
36585;SDS011;22591;48.314;11.562;2024-02-26T11:59:52;4.72;;;4.43;;
36585;SDS011;22591;48.314;11.562;2024-02-26T12:05:06;4.05;;;3.65;;
36585;SDS011;22591;48.314;11.562;2024-02-26T12:07:36;4.30;;;3.97;;
36585;SDS011;22591;48.314;11.562;2024-02-26T12:12:52;5.07;;;4.28;;
36585;SDS011;22591;48.314;11.562;2024-02-26T12:15:19;5.25;;;4.85;;
36585;SDS011;22591;48.314;11.562;2024-02-26T12:17:48;5.18;;;4.70;;
36585;SDS011;22591;48.314;11.562;2024-02-26T12:20:15;5.65;;;4.85;;
36585;SDS011;22591;48.314;11.562;2024-02-26T12:22:45;4.55;;;4.20;;
36585;SDS011;22591;48.314;11.562;2024-02-26T12:25:13;8.00;;;4.95;;
36585;SDS011;22591;48.314;11.562;2024-02-26T12:27:39;3.95;;;3.67;;
36585;SDS011;22591;48.314;11.562;2024-02-26T12:30:04;3.75;;;3.45;;
36585;SDS011;22591;48.314;11.562;2024-02-26T12:32:31;3.85;;;3.63;;
36585;SDS011;22591;48.314;11.562;2024-02-26T12:34:57;4.35;;;4.05;;
36585;SDS011;22591;48.314;11.562;2024-02-26T12:37:24;4.45;;;4.05;;
36585;SDS011;22591;48.314;11.562;2024-02-26T12:39:52;4.57;;;4.03;;
36585;SDS011;22591;48.314;11.562;2024-02-26T12:42:18;3.70;;;3.40;;
36585;SDS011;22591;48.314;11.562;2024-02-26T12:44:47;3.45;;;3.22;;
36585;SDS011;22591;48.314;11.562;2024-02-26T12:47:12;2.70;;;2.60;;
36585;SDS011;22591;48.314;11.562;2024-02-26T12:49:47;3.45;;;3.15;;
36585;SDS011;22591;48.314;11.562;2024-02-26T12:52:13;2.50;;;2.30;;
36585;SDS011;22591;48.314;11.562;2024-02-26T12:54:39;2.75;;;2.47;;
36585;SDS011;22591;48.314;11.562;2024-02-26T12:57:07;2.70;;;2.50;;
36585;SDS011;22591;48.314;11.562;2024-02-26T12:59:34;3.55;;;2.67;;
36585;SDS011;22591;48.314;11.562;2024-02-26T13:02:01;2.60;;;2.40;;
36585;SDS011;22591;48.314;11.562;2024-02-26T13:04:28;2.25;;;2.13;;
36585;SDS011;22591;48.314;11.562;2024-02-26T13:06:55;3.08;;;2.25;;
36585;SDS011;22591;48.314;11.562;2024-02-26T13:09:25;2.72;;;2.42;;
36585;SDS011;22591;48.314;11.562;2024-02-26T13:11:55;2.33;;;2.15;;
36585;SDS011;22591;48.314;11.562;2024-02-26T13:14:21;2.55;;;2.35;;
36585;SDS011;22591;48.314;11.562;2024-02-26T13:16:56;2.00;;;1.90;;
36585;SDS011;22591;48.314;11.562;2024-02-26T13:19:25;2.10;;;2.00;;
36585;SDS011;22591;48.314;11.562;2024-02-26T13:21:51;2.30;;;2.20;;
36585;SDS011;22591;48.314;11.562;2024-02-26T13:24:16;2.03;;;1.92;;
36585;SDS011;22591;48.314;11.562;2024-02-26T13:26:45;2.90;;;1.70;;
36585;SDS011;22591;48.314;11.562;2024-02-26T13:29:20;1.65;;;1.55;;
36585;SDS011;22591;48.314;11.562;2024-02-26T13:31:48;2.00;;;1.90;;
36585;SDS011;22591;48.314;11.562;2024-02-26T13:34:25;2.00;;;1.90;;
36585;SDS011;22591;48.314;11.562;2024-02-26T13:36:55;2.30;;;2.10;;
36585;SDS011;22591;48.314;11.562;2024-02-26T13:39:22;2.45;;;2.30;;
36585;SDS011;22591;48.314;11.562;2024-02-26T13:41:49;1.85;;;1.75;;
36585;SDS011;22591;48.314;11.562;2024-02-26T13:44:14;1.35;;;1.30;;
36585;SDS011;22591;48.314;11.562;2024-02-26T13:46:40;1.85;;;1.23;;
36585;SDS011;22591;48.314;11.562;2024-02-26T13:49:08;1.60;;;1.50;;
36585;SDS011;22591;48.314;11.562;2024-02-26T13:51:34;1.58;;;1.48;;
36585;SDS011;22591;48.314;11.562;2024-02-26T13:54:01;2.00;;;1.90;;
36585;SDS011;22591;48.314;11.562;2024-02-26T13:56:29;1.92;;;1.60;;
36585;SDS011;22591;48.314;11.562;2024-02-26T13:58:57;1.98;;;1.70;;
36585;SDS011;22591;48.314;11.562;2024-02-26T14:01:24;1.67;;;1.58;;
36585;SDS011;22591;48.314;11.562;2024-02-26T14:03:50;2.05;;;1.95;;
36585;SDS011;22591;48.314;11.562;2024-02-26T14:06:21;2.10;;;2.00;;
36585;SDS011;22591;48.314;11.562;2024-02-26T14:08:48;2.20;;;2.10;;
36585;SDS011;22591;48.314;11.562;2024-02-26T14:11:14;5.68;;;2.10;;
36585;SDS011;22591;48.314;11.562;2024-02-26T14:13:41;1.92;;;1.60;;
36585;SDS011;22591;48.314;11.562;2024-02-26T14:16:07;1.90;;;1.75;;
36585;SDS011;22591;48.314;11.562;2024-02-26T14:18:35;1.65;;;1.55;;
36585;SDS011;22591;48.314;11.562;2024-02-26T14:21:01;1.73;;;1.63;;
36585;SDS011;22591;48.314;11.562;2024-02-26T14:23:26;1.95;;;1.85;;